Terminal Aerodrome Forecast
Issued by NWS

Home | Current Version | Previous Version | Text Only | Print | Product List | Glossary On
Versions: 1 2 3 4 5 6 7 8 9 10 11 12 13 14 15
000
FTUS45 KGGW 301100
TAFSDY
TAF
KSDY 301129Z 3012/0112 VRB05KT 1SM FU SCT010 BKN100
     FM301700 VRB05KT 5SM HZ VCSH BKN110
     FM302000 VRB05KT P6SM VCTS BKN060CB
     FM010000 VRB05KT P6SM -TSRA OVC050CB
      AMD LTD TO CLD VIS AND WIND=

USA.gov is the U.S. government's official web portal to all federal, state and local government web resources and services.